Time;durP1;ratioP1;P1;durP2;ratioP2;P2;SDS_P1;SDS_P2;PMS_P1;PMS_P2;Temp;Humidity;BMP_temperature;BMP_pressure;BME280_temperature;BME280_humidity;BME280_pressure;Samples;Min_cycle;Max_cycle;Signal;HPM_P1;HPM_P2
2021/09/01 00:02:15;;;;;;;18.83;8.67;;;;;;;;;;5033165;28;20510;-57
2021/09/01 00:04:42;;;;;;;18.27;8.40;;;;;;;;;;5033076;28;20536;-56
2021/09/01 00:07:11;;;;;;;18.97;8.37;;;;;;;;;;5034808;28;20515;-56
2021/09/01 00:09:38;;;;;;;20.33;10.27;;;;;;;;;;5033624;28;20444;-56
2021/09/01 00:12:06;;;;;;;15.90;9.00;;;;;;;;;;5033030;28;20537;-56
2021/09/01 00:14:33;;;;;;;17.27;9.70;;;;;;;;;;5032911;28;20526;-56
2021/09/01 00:17:00;;;;;;;16.60;8.90;;;;;;;;;;5032927;28;21138;-57
2021/09/01 00:19:28;;;;;;;16.90;9.10;;;;;;;;;;5033181;28;20544;-57
2021/09/01 00:21:56;;;;;;;18.10;9.50;;;;;;;;;;5033267;28;20504;-55
2021/09/01 00:24:25;;;;;;;17.33;9.10;;;;;;;;;;5035347;28;20535;-57
2021/09/01 00:26:52;;;;;;;17.10;9.03;;;;;;;;;;5036959;28;20507;-56
2021/09/01 00:29:19;;;;;;;17.53;9.53;;;;;;;;;;5037466;28;20494;-56
2021/09/01 00:31:46;;;;;;;13.43;9.77;;;;;;;;;;5037062;28;20448;-56
2021/09/01 00:34:15;;;;;;;14.97;9.47;;;;;;;;;;5037139;28;20527;-56
2021/09/01 00:36:42;;;;;;;15.30;9.70;;;;;;;;;;5036973;28;20448;-56
2021/09/01 00:39:09;;;;;;;18.70;9.77;;;;;;;;;;5036665;28;20465;-56
2021/09/01 00:41:38;;;;;;;23.70;11.60;;;;;;;;;;5036709;28;20494;-56
2021/09/01 00:44:18;;;;;;;16.50;8.93;;;;;;;;;;5036624;28;20472;-56
2021/09/01 00:46:45;;;;;;;19.83;10.47;;;;;;;;;;5036815;28;20429;-56
2021/09/01 00:49:13;;;;;;;22.17;9.57;;;;;;;;;;5036777;28;20495;-56
2021/09/01 00:51:42;;;;;;;20.37;10.07;;;;;;;;;;5036502;28;20445;-57
2021/09/01 00:54:11;;;;;;;16.03;9.30;;;;;;;;;;5036688;28;20565;-57
2021/09/01 00:56:41;;;;;;;14.60;10.20;;;;;;;;;;5037840;28;20793;-56
2021/09/01 00:59:08;;;;;;;15.83;8.97;;;;;;;;;;5036480;28;20437;-56
2021/09/01 01:01:37;;;;;;;18.33;9.93;;;;;;;;;;5036577;28;20448;-56
2021/09/01 01:04:04;;;;;;;16.43;9.30;;;;;;;;;;5036651;28;20441;-56
2021/09/01 01:06:32;;;;;;;17.70;9.83;;;;;;;;;;5036342;28;20453;-56
2021/09/01 01:08:59;;;;;;;16.60;9.50;;;;;;;;;;5036406;28;20527;-57
2021/09/01 01:11:26;;;;;;;17.93;10.33;;;;;;;;;;5036402;28;20861;-57
2021/09/01 01:13:56;;;;;;;18.00;10.00;;;;;;;;;;5036779;28;20477;-57
2021/09/01 01:16:23;;;;;;;17.80;9.47;;;;;;;;;;5036480;28;20503;-57
2021/09/01 01:18:51;;;;;;;15.43;10.03;;;;;;;;;;5035920;28;20538;-57
2021/09/01 01:21:19;;;;;;;21.20;10.70;;;;;;;;;;5036258;28;20448;-57
2021/09/01 01:23:46;;;;;;;20.30;10.40;;;;;;;;;;5036272;28;20870;-57
2021/09/01 01:26:15;;;;;;;16.50;9.30;;;;;;;;;;5036167;28;20448;-56
2021/09/01 01:28:42;;;;;;;14.23;9.10;;;;;;;;;;5036075;28;20472;-56
2021/09/01 01:31:09;;;;;;;15.73;8.27;;;;;;;;;;5036136;28;20523;-56
2021/09/01 01:33:36;;;;;;;17.80;8.63;;;;;;;;;;5035688;28;20476;-56
2021/09/01 01:36:04;;;;;;;16.17;9.57;;;;;;;;;;5035215;28;20506;-56
2021/09/01 01:38:31;;;;;;;11.60;8.17;;;;;;;;;;5060452;22;20500;-63
2021/09/01 01:40:59;;;;;;;20.20;8.83;;;;;;;;;;5035522;28;20448;-64
2021/09/01 01:43:28;;;;;;;16.00;9.17;;;;;;;;;;5035762;28;20433;-64
2021/09/01 01:45:55;;;;;;;18.63;8.10;;;;;;;;;;5035419;28;20449;-64
2021/09/01 01:48:22;;;;;;;14.20;7.83;;;;;;;;;;5035648;28;20556;-63
2021/09/01 01:50:50;;;;;;;12.83;6.60;;;;;;;;;;5035760;28;20441;-63
2021/09/01 01:53:17;;;;;;;17.03;8.10;;;;;;;;;;5035545;28;20530;-64
2021/09/01 01:55:44;;;;;;;11.43;8.23;;;;;;;;;;5035588;28;20452;-63
2021/09/01 01:58:11;;;;;;;19.67;7.73;;;;;;;;;;5035138;28;20973;-64
2021/09/01 02:00:40;;;;;;;27.03;7.83;;;;;;;;;;5036165;28;20441;-63
2021/09/01 02:03:08;;;;;;;13.50;7.47;;;;;;;;;;5035171;28;20499;-65
2021/09/01 02:05:35;;;;;;;22.60;9.20;;;;;;;;;;5035594;28;20445;-63
2021/09/01 02:08:02;;;;;;;13.63;7.97;;;;;;;;;;5035704;28;20489;-64
2021/09/01 02:10:29;;;;;;;25.03;8.83;;;;;;;;;;5035176;28;20503;-64
2021/09/01 02:12:57;;;;;;;12.50;7.63;;;;;;;;;;5035120;28;20445;-64
2021/09/01 02:15:24;;;;;;;17.33;9.17;;;;;;;;;;5035336;28;20500;-64
2021/09/01 02:17:53;;;;;;;18.43;8.40;;;;;;;;;;5035098;28;20505;-64
2021/09/01 02:20:20;;;;;;;17.57;8.17;;;;;;;;;;5034891;28;20511;-64
2021/09/01 02:22:47;;;;;;;17.37;8.60;;;;;;;;;;5035342;28;20445;-64
2021/09/01 02:25:15;;;;;;;17.10;8.80;;;;;;;;;;5035524;28;20440;-64
2021/09/01 02:27:42;;;;;;;11.03;7.03;;;;;;;;;;5035485;28;20453;-64
2021/09/01 02:30:12;;;;;;;12.80;7.30;;;;;;;;;;5035204;28;20445;-64
2021/09/01 02:32:39;;;;;;;16.70;8.53;;;;;;;;;;5035248;28;20459;-64
2021/09/01 02:35:08;;;;;;;14.40;8.37;;;;;;;;;;5035642;28;21011;-64
2021/09/01 02:37:35;;;;;;;13.37;6.87;;;;;;;;;;5035089;28;20821;-64
2021/09/01 02:40:03;;;;;;;12.60;7.27;;;;;;;;;;5035600;28;20429;-64
2021/09/01 02:42:30;;;;;;;10.67;7.50;;;;;;;;;;5035091;28;20444;-64
2021/09/01 02:44:58;;;;;;;21.10;8.47;;;;;;;;;;5035060;28;20441;-64
2021/09/01 02:47:25;;;;;;;12.40;7.50;;;;;;;;;;5033841;28;20465;-65
2021/09/01 02:49:52;;;;;;;16.93;7.90;;;;;;;;;;5034686;28;20449;-64
2021/09/01 02:52:21;;;;;;;16.90;7.37;;;;;;;;;;5034967;28;20510;-66
2021/09/01 02:54:48;;;;;;;15.10;7.13;;;;;;;;;;5034260;28;20996;-65
2021/09/01 02:57:15;;;;;;;11.73;7.13;;;;;;;;;;5034245;28;20575;-63
2021/09/01 02:59:42;;;;;;;13.63;7.73;;;;;;;;;;5034419;28;20548;-62
2021/09/01 03:02:10;;;;;;;15.90;8.00;;;;;;;;;;5034277;28;20453;-65
2021/09/01 03:04:37;;;;;;;13.27;7.10;;;;;;;;;;5033926;28;20444;-63
2021/09/01 03:07:04;;;;;;;9.63;6.37;;;;;;;;;;5033806;28;20512;-65
2021/09/01 03:09:33;;;;;;;12.20;7.07;;;;;;;;;;5034143;28;20449;-64
2021/09/01 03:12:00;;;;;;;15.83;7.50;;;;;;;;;;5033931;28;20945;-64
2021/09/01 03:14:27;;;;;;;15.47;8.23;;;;;;;;;;5033994;28;20473;-64
2021/09/01 03:16:55;;;;;;;16.87;7.43;;;;;;;;;;5034144;28;20449;-63
2021/09/01 03:19:22;;;;;;;13.37;6.80;;;;;;;;;;5034105;28;20461;-62
2021/09/01 03:21:50;;;;;;;17.80;7.30;;;;;;;;;;5033741;28;20456;-64
2021/09/01 03:24:17;;;;;;;19.57;6.90;;;;;;;;;;5034088;28;20448;-64
2021/09/01 03:26:46;;;;;;;11.10;6.63;;;;;;;;;;5034200;28;20487;-64
2021/09/01 03:29:13;;;;;;;14.77;6.70;;;;;;;;;;5033674;28;20997;-64
2021/09/01 03:31:40;;;;;;;14.77;7.50;;;;;;;;;;5033995;28;20967;-64
2021/09/01 03:34:08;;;;;;;13.13;6.97;;;;;;;;;;5033702;28;20472;-64
2021/09/01 03:36:35;;;;;;;11.03;6.00;;;;;;;;;;5033881;28;20441;-64
2021/09/01 03:39:02;;;;;;;15.43;7.10;;;;;;;;;;5033671;28;21054;-64
2021/09/01 03:41:29;;;;;;;10.27;7.10;;;;;;;;;;5034180;28;20498;-64
2021/09/01 03:43:58;;;;;;;11.83;7.00;;;;;;;;;;5033791;28;20441;-64
2021/09/01 03:46:25;;;;;;;15.83;7.00;;;;;;;;;;5033348;28;20495;-64
2021/09/01 03:48:52;;;;;;;13.07;6.97;;;;;;;;;;5033526;28;20461;-64
2021/09/01 03:51:20;;;;;;;22.03;9.37;;;;;;;;;;5033385;28;20441;-64
2021/09/01 03:53:47;;;;;;;13.40;6.67;;;;;;;;;;5033279;28;20457;-64
2021/09/01 03:56:15;;;;;;;12.87;6.37;;;;;;;;;;5033442;28;20449;-64
2021/09/01 03:58:43;;;;;;;13.93;6.40;;;;;;;;;;5032896;28;20461;-64
2021/09/01 04:01:11;;;;;;;10.80;6.93;;;;;;;;;;5033453;28;20502;-64
2021/09/01 04:03:39;;;;;;;24.73;7.90;;;;;;;;;;5033182;28;20449;-64
2021/09/01 04:08:33;;;;;;;11.73;6.73;;;;;;;;;;5091746;27;20566;-64
2021/09/01 04:11:00;;;;;;;12.53;6.87;;;;;;;;;;5091146;28;20492;-65
2021/09/01 04:13:28;;;;;;;14.20;6.20;;;;;;;;;;5092428;28;20468;-64
2021/09/01 04:15:55;;;;;;;17.80;8.20;;;;;;;;;;5091295;28;20868;-63
2021/09/01 04:18:22;;;;;;;18.13;7.70;;;;;;;;;;5090738;28;20516;-65
2021/09/01 04:20:49;;;;;;;11.57;6.50;;;;;;;;;;5090975;28;20435;-63
2021/09/01 04:23:17;;;;;;;15.63;7.60;;;;;;;;;;5090479;28;20455;-64
2021/09/01 04:25:45;;;;;;;11.60;6.90;;;;;;;;;;5090778;28;20435;-64
2021/09/01 04:28:12;;;;;;;10.20;6.93;;;;;;;;;;5090538;28;20485;-64
2021/09/01 04:30:40;;;;;;;12.77;6.67;;;;;;;;;;5091110;28;20817;-64
2021/09/01 04:33:07;;;;;;;15.30;7.93;;;;;;;;;;5090271;28;20468;-64
2021/09/01 04:35:34;;;;;;;12.70;7.10;;;;;;;;;;5090388;28;20455;-65
2021/09/01 04:38:01;;;;;;;15.80;7.90;;;;;;;;;;5090350;28;20462;-63
2021/09/01 04:40:28;;;;;;;13.73;6.80;;;;;;;;;;5092178;28;20499;-64
2021/09/01 04:42:57;;;;;;;15.03;7.90;;;;;;;;;;5096537;28;20469;-64
2021/09/01 04:45:24;;;;;;;11.97;7.03;;;;;;;;;;5097480;28;20443;-64
2021/09/01 04:47:52;;;;;;;16.17;8.80;;;;;;;;;;5098114;28;20490;-64
2021/09/01 04:50:19;;;;;;;16.13;7.40;;;;;;;;;;5095721;28;20872;-65
2021/09/01 04:52:46;;;;;;;11.80;6.03;;;;;;;;;;5090036;28;20446;-64
2021/09/01 04:55:15;;;;;;;13.70;6.77;;;;;;;;;;5091140;28;20458;-63
2021/09/01 04:57:43;;;;;;;11.10;6.53;;;;;;;;;;5089597;28;20982;-64
2021/09/01 05:00:12;;;;;;;13.17;6.80;;;;;;;;;;5089792;28;20450;-65
2021/09/01 05:02:40;;;;;;;13.83;7.60;;;;;;;;;;5089719;28;20938;-64
2021/09/01 05:05:07;;;;;;;19.57;7.43;;;;;;;;;;5089807;28;20446;-64
2021/09/01 05:07:35;;;;;;;10.93;6.70;;;;;;;;;;5089503;28;20564;-66
2021/09/01 05:10:02;;;;;;;12.00;6.57;;;;;;;;;;5090197;28;20446;-64
2021/09/01 05:12:30;;;;;;;11.60;6.40;;;;;;;;;;5091313;28;20852;-63
2021/09/01 05:14:58;;;;;;;9.93;6.40;;;;;;;;;;5092154;28;20450;-64
2021/09/01 05:17:26;;;;;;;20.73;7.80;;;;;;;;;;5089535;28;20489;-64
2021/09/01 05:19:53;;;;;;;11.63;6.77;;;;;;;;;;5075855;28;21008;-64
2021/09/01 05:22:22;;;;;;;15.00;7.10;;;;;;;;;;5076591;28;20799;-63
2021/09/01 05:24:55;;;;;;;13.00;7.73;;;;;;;;;;5076028;28;20456;-63
2021/09/01 05:27:23;;;;;;;12.13;6.17;;;;;;;;;;5076259;28;20982;-64
2021/09/01 05:29:51;;;;;;;12.20;6.80;;;;;;;;;;5075939;28;20447;-64
2021/09/01 05:32:19;;;;;;;7.83;5.73;;;;;;;;;;5076268;28;20877;-63
2021/09/01 05:34:48;;;;;;;11.53;6.50;;;;;;;;;;5076948;28;20500;-65
2021/09/01 05:37:15;;;;;;;15.90;7.07;;;;;;;;;;5077236;28;20439;-64
2021/09/01 05:39:44;;;;;;;15.07;7.30;;;;;;;;;;5077789;28;20872;-64
2021/09/01 05:42:12;;;;;;;10.13;6.00;;;;;;;;;;5077957;28;20497;-64
2021/09/01 05:44:40;;;;;;;14.10;7.13;;;;;;;;;;5078078;28;20489;-64
2021/09/01 05:47:08;;;;;;;12.93;7.17;;;;;;;;;;5077209;28;20556;-64
2021/09/01 05:49:36;;;;;;;16.57;7.20;;;;;;;;;;5078954;28;20451;-64
2021/09/01 05:52:05;;;;;;;15.30;6.27;;;;;;;;;;5077290;28;20443;-64
2021/09/01 05:54:33;;;;;;;12.87;6.70;;;;;;;;;;5076002;28;20448;-63
2021/09/01 05:57:08;;;;;;;18.07;7.80;;;;;;;;;;5075464;28;20934;-63
2021/09/01 05:59:39;;;;;;;16.30;7.20;;;;;;;;;;5075379;28;20961;-64
2021/09/01 06:02:08;;;;;;;11.57;7.50;;;;;;;;;;5075674;28;20437;-63
2021/09/01 06:04:39;;;;;;;11.17;6.67;;;;;;;;;;5075353;28;20454;-64
2021/09/01 06:07:13;;;;;;;15.20;7.60;;;;;;;;;;5074885;28;20552;-63
2021/09/01 06:09:42;;;;;;;12.63;7.10;;;;;;;;;;5075531;28;20435;-61
2021/09/01 06:12:10;;;;;;;14.20;6.30;;;;;;;;;;5075805;28;20534;-61
2021/09/01 06:14:37;;;;;;;12.53;6.80;;;;;;;;;;5075565;28;20501;-61
2021/09/01 06:17:05;;;;;;;12.57;6.70;;;;;;;;;;5075638;28;20443;-60
2021/09/01 06:19:32;;;;;;;11.73;6.80;;;;;;;;;;5076139;28;20443;-60
2021/09/01 06:22:00;;;;;;;13.23;7.30;;;;;;;;;;5076697;28;20855;-61
2021/09/01 06:24:28;;;;;;;9.37;6.37;;;;;;;;;;5075786;28;20477;-62
2021/09/01 06:26:56;;;;;;;12.10;6.90;;;;;;;;;;5075650;28;20931;-62
2021/09/01 06:29:23;;;;;;;17.87;6.93;;;;;;;;;;5075652;28;20479;-62
2021/09/01 06:31:50;;;;;;;12.43;6.60;;;;;;;;;;5075338;28;20451;-61
2021/09/01 06:34:17;;;;;;;11.43;6.60;;;;;;;;;;5076597;28;20858;-62
2021/09/01 06:36:45;;;;;;;13.37;7.30;;;;;;;;;;5076010;28;20443;-61
2021/09/01 06:39:12;;;;;;;17.60;7.13;;;;;;;;;;5075512;28;20451;-61
2021/09/01 06:41:41;;;;;;;14.63;5.93;;;;;;;;;;5075332;28;20965;-61
2021/09/01 06:44:09;;;;;;;11.47;6.40;;;;;;;;;;5074893;28;20509;-62
2021/09/01 06:46:36;;;;;;;14.67;6.53;;;;;;;;;;5075079;28;20469;-63
2021/09/01 06:49:03;;;;;;;10.73;7.10;;;;;;;;;;5074941;28;20483;-62
2021/09/01 06:51:31;;;;;;;13.33;6.80;;;;;;;;;;5075475;28;20803;-62
2021/09/01 06:53:58;;;;;;;13.23;6.97;;;;;;;;;;5074832;28;20508;-62
2021/09/01 06:56:25;;;;;;;11.17;6.13;;;;;;;;;;5074783;28;20455;-62
2021/09/01 06:58:54;;;;;;;14.90;7.13;;;;;;;;;;5074181;28;20517;-62
2021/09/01 07:01:21;;;;;;;12.60;6.60;;;;;;;;;;5074331;28;20439;-61
2021/09/01 07:03:50;;;;;;;13.37;7.43;;;;;;;;;;5074460;28;20439;-62
2021/09/01 07:06:18;;;;;;;11.37;6.30;;;;;;;;;;5073856;28;20466;-62
2021/09/01 07:08:46;;;;;;;16.90;7.10;;;;;;;;;;5074322;28;20491;-62
2021/09/01 07:11:13;;;;;;;13.60;7.13;;;;;;;;;;5073859;28;20485;-63
2021/09/01 07:13:41;;;;;;;11.40;7.10;;;;;;;;;;5074310;28;20443;-62
2021/09/01 07:16:09;;;;;;;13.07;6.70;;;;;;;;;;5073986;28;20443;-62
2021/09/01 07:18:37;;;;;;;11.50;7.10;;;;;;;;;;5073849;28;20879;-60
2021/09/01 07:21:04;;;;;;;18.13;7.47;;;;;;;;;;5074137;28;20443;-62
2021/09/01 07:23:31;;;;;;;10.17;6.30;;;;;;;;;;5074219;28;20474;-61
2021/09/01 07:25:59;;;;;;;11.23;6.90;;;;;;;;;;5074133;28;20447;-60
2021/09/01 07:28:26;;;;;;;10.57;6.70;;;;;;;;;;5073505;28;21056;-61
2021/09/01 07:30:53;;;;;;;17.53;8.33;;;;;;;;;;5073868;28;20444;-62
2021/09/01 07:33:22;;;;;;;12.40;8.10;;;;;;;;;;5073983;28;20853;-63
2021/09/01 07:35:49;;;;;;;12.30;7.70;;;;;;;;;;5074003;28;20451;-62
2021/09/01 07:38:17;;;;;;;10.40;7.00;;;;;;;;;;5095923;22;20493;-56
2021/09/01 07:40:44;;;;;;;16.50;6.97;;;;;;;;;;5033288;28;20445;-57
2021/09/01 07:43:11;;;;;;;8.43;6.00;;;;;;;;;;5032809;28;20440;-57
2021/09/01 07:45:38;;;;;;;13.17;8.00;;;;;;;;;;5032571;28;20948;-56
2021/09/01 07:48:06;;;;;;;14.70;7.23;;;;;;;;;;5032642;28;20535;-56
2021/09/01 07:50:34;;;;;;;14.37;7.50;;;;;;;;;;5032559;28;20451;-56
2021/09/01 07:53:02;;;;;;;10.13;7.07;;;;;;;;;;5033148;28;20793;-56
2021/09/01 07:55:29;;;;;;;18.73;7.60;;;;;;;;;;5033024;28;20453;-57
2021/09/01 07:57:56;;;;;;;13.47;8.10;;;;;;;;;;5032881;28;20543;-55
2021/09/01 08:00:24;;;;;;;10.20;8.23;;;;;;;;;;5033162;28;20457;-57
2021/09/01 08:02:52;;;;;;;12.23;7.33;;;;;;;;;;5033257;28;20441;-57
2021/09/01 08:05:20;;;;;;;14.13;8.60;;;;;;;;;;5032930;28;20913;-57
2021/09/01 08:07:49;;;;;;;14.30;8.63;;;;;;;;;;5032761;28;20477;-57
2021/09/01 08:10:16;;;;;;;16.87;9.17;;;;;;;;;;5032665;28;20947;-58
2021/09/01 08:12:44;;;;;;;15.03;9.23;;;;;;;;;;5033078;28;20591;-57
2021/09/01 08:15:12;;;;;;;11.13;8.30;;;;;;;;;;5032999;28;20445;-57
2021/09/01 08:17:39;;;;;;;12.47;8.63;;;;;;;;;;5032575;28;20445;-57
2021/09/01 08:20:07;;;;;;;9.17;7.50;;;;;;;;;;5032593;28;20936;-56
2021/09/01 08:22:34;;;;;;;13.03;7.80;;;;;;;;;;5033526;28;20444;-56
2021/09/01 08:25:03;;;;;;;12.47;6.37;;;;;;;;;;5032850;28;20519;-57
2021/09/01 08:27:30;;;;;;;9.83;6.23;;;;;;;;;;5032523;28;20510;-56
2021/09/01 08:29:57;;;;;;;10.90;7.57;;;;;;;;;;5032704;28;20949;-60
2021/09/01 08:32:25;;;;;;;11.53;6.70;;;;;;;;;;5032911;28;20440;-57
2021/09/01 08:34:52;;;;;;;17.53;7.20;;;;;;;;;;5032808;28;20507;-57
2021/09/01 08:37:19;;;;;;;14.83;6.07;;;;;;;;;;5033191;28;20539;-57
2021/09/01 08:39:47;;;;;;;15.07;7.67;;;;;;;;;;5032200;28;20531;-58
2021/09/01 08:42:18;;;;;;;10.80;6.80;;;;;;;;;;5033084;28;20452;-58
2021/09/01 08:44:45;;;;;;;14.90;6.73;;;;;;;;;;5032755;28;20441;-53
2021/09/01 08:47:13;;;;;;;12.77;6.50;;;;;;;;;;5032002;28;20441;-55
2021/09/01 08:49:40;;;;;;;7.90;6.27;;;;;;;;;;5032562;28;20567;-55
2021/09/01 08:52:07;;;;;;;7.90;6.27;;;;;;;;;;5032532;28;20940;-55
2021/09/01 08:54:34;;;;;;;10.10;7.07;;;;;;;;;;5035186;28;20448;-54
2021/09/01 08:57:02;;;;;;;9.30;5.90;;;;;;;;;;5036116;28;20937;-55
2021/09/01 08:59:30;;;;;;;10.00;6.67;;;;;;;;;;5035989;28;20460;-56
2021/09/01 09:01:57;;;;;;;9.60;6.00;;;;;;;;;;5035723;28;20445;-55
2021/09/01 09:04:25;;;;;;;10.27;5.90;;;;;;;;;;5035670;28;20449;-55
2021/09/01 09:06:53;;;;;;;12.37;6.43;;;;;;;;;;5036885;28;20453;-54
2021/09/01 09:09:21;;;;;;;8.40;5.50;;;;;;;;;;5035981;28;20484;-53
2021/09/01 09:11:49;;;;;;;9.73;6.30;;;;;;;;;;5035752;28;20929;-54
2021/09/01 09:14:17;;;;;;;10.77;6.10;;;;;;;;;;5035646;28;20456;-55
2021/09/01 09:16:46;;;;;;;9.20;5.50;;;;;;;;;;5035493;28;21006;-54
2021/09/01 09:19:14;;;;;;;13.97;6.37;;;;;;;;;;5035323;28;20494;-56
2021/09/01 09:21:41;;;;;;;16.50;6.67;;;;;;;;;;5035713;28;20519;-52
2021/09/01 09:24:19;;;;;;;12.20;6.70;;;;;;;;;;5035533;28;20484;-56
2021/09/01 09:26:46;;;;;;;9.80;6.00;;;;;;;;;;5036028;28;20487;-56
2021/09/01 09:29:14;;;;;;;10.70;5.90;;;;;;;;;;5035632;28;20484;-56
2021/09/01 09:31:42;;;;;;;9.30;6.47;;;;;;;;;;5036318;28;20498;-56
2021/09/01 09:34:11;;;;;;;12.50;6.57;;;;;;;;;;5035700;28;20471;-56
2021/09/01 09:36:39;;;;;;;11.53;6.87;;;;;;;;;;5035867;28;20457;-56
2021/09/01 09:39:07;;;;;;;13.07;6.57;;;;;;;;;;5035262;28;20472;-55
2021/09/01 09:41:34;;;;;;;13.43;7.47;;;;;;;;;;5035596;28;20449;-56
2021/09/01 09:44:03;;;;;;;12.30;7.13;;;;;;;;;;5035339;28;20445;-55
2021/09/01 09:46:30;;;;;;;13.30;7.50;;;;;;;;;;5035130;28;20818;-56
2021/09/01 09:49:06;;;;;;;12.90;7.73;;;;;;;;;;5034859;28;20481;-56
2021/09/01 09:51:42;;;;;;;11.70;6.50;;;;;;;;;;5034861;28;20433;-56
2021/09/01 09:54:15;;;;;;;14.23;7.13;;;;;;;;;;5035121;28;20448;-56
2021/09/01 09:56:43;;;;;;;10.30;7.50;;;;;;;;;;5034781;28;20818;-56
2021/09/01 09:59:14;;;;;;;19.60;7.30;;;;;;;;;;5034757;28;21047;-54
2021/09/01 10:01:42;;;;;;;17.90;8.60;;;;;;;;;;5034761;28;20429;-56
2021/09/01 10:04:09;;;;;;;13.60;7.63;;;;;;;;;;5034541;28;20453;-55
2021/09/01 10:06:36;;;;;;;9.20;7.20;;;;;;;;;;5034888;28;20467;-54
2021/09/01 10:09:05;;;;;;;23.43;8.53;;;;;;;;;;5034531;28;20891;-55
2021/09/01 10:11:34;;;;;;;11.83;7.70;;;;;;;;;;5034446;28;20511;-55
2021/09/01 10:14:02;;;;;;;11.20;7.13;;;;;;;;;;5034831;28;20506;-55
2021/09/01 10:16:32;;;;;;;10.10;7.70;;;;;;;;;;5035199;28;20445;-54
2021/09/01 10:19:02;;;;;;;12.83;7.10;;;;;;;;;;5034817;28;21038;-56
2021/09/01 10:21:32;;;;;;;12.23;7.10;;;;;;;;;;5034578;28;20576;-56
2021/09/01 10:24:16;;;;;;;13.27;7.80;;;;;;;;;;5033987;28;20721;-56
2021/09/01 10:26:57;;;;;;;10.93;7.27;;;;;;;;;;5034209;28;20491;-56
2021/09/01 10:29:38;;;;;;;14.27;7.93;;;;;;;;;;5034377;28;20536;-56
2021/09/01 10:32:16;;;;;;;9.23;7.77;;;;;;;;;;5034200;28;20769;-56
2021/09/01 10:34:43;;;;;;;16.40;7.33;;;;;;;;;;5034274;28;20479;-56
2021/09/01 10:37:11;;;;;;;13.37;7.93;;;;;;;;;;5034484;28;20453;-55
2021/09/01 10:39:39;;;;;;;20.33;8.20;;;;;;;;;;5033613;28;20481;-56
2021/09/01 10:42:25;;;;;;;16.37;8.07;;;;;;;;;;5034026;28;20524;-56
2021/09/01 10:44:54;;;;;;;11.43;7.73;;;;;;;;;;5033769;28;20449;-56
2021/09/01 10:47:21;;;;;;;10.43;7.77;;;;;;;;;;5033849;28;20446;-56
2021/09/01 10:49:59;;;;;;;11.33;8.07;;;;;;;;;;5033724;28;20578;-56
2021/09/01 10:52:27;;;;;;;11.60;7.83;;;;;;;;;;5033700;28;20548;-56
2021/09/01 10:54:55;;;;;;;13.70;8.20;;;;;;;;;;5033270;28;20459;-56
2021/09/01 10:57:23;;;;;;;11.70;7.80;;;;;;;;;;5033246;28;20510;-57
2021/09/01 10:59:51;;;;;;;12.13;7.20;;;;;;;;;;5033124;28;20834;-56
2021/09/01 11:02:21;;;;;;;9.90;6.40;;;;;;;;;;5033503;28;20450;-56
2021/09/01 11:04:49;;;;;;;12.30;7.27;;;;;;;;;;5033475;28;20955;-56
2021/09/01 11:07:20;;;;;;;10.53;7.50;;;;;;;;;;5033454;28;20517;-56
2021/09/01 11:09:51;;;;;;;11.83;7.73;;;;;;;;;;5033201;28;20480;-56
2021/09/01 11:12:18;;;;;;;12.80;8.10;;;;;;;;;;5032113;28;20824;-56
2021/09/01 11:14:48;;;;;;;11.40;7.67;;;;;;;;;;5033483;28;20445;-56
2021/09/01 11:17:16;;;;;;;10.70;7.70;;;;;;;;;;5033060;28;20449;-55
2021/09/01 11:19:46;;;;;;;8.33;6.77;;;;;;;;;;5033574;28;20906;-57
2021/09/01 11:22:14;;;;;;;11.80;7.50;;;;;;;;;;5033184;28;20441;-55
2021/09/01 11:24:48;;;;;;;9.03;6.20;;;;;;;;;;5033262;28;20449;-55
2021/09/01 11:27:17;;;;;;;10.20;6.70;;;;;;;;;;5033192;28;20433;-54
2021/09/01 11:29:45;;;;;;;11.20;7.03;;;;;;;;;;5033117;28;20534;-57
2021/09/01 11:32:15;;;;;;;9.30;6.93;;;;;;;;;;5033195;28;20445;-56
2021/09/01 11:34:43;;;;;;;9.30;7.00;;;;;;;;;;5033390;28;20449;-58
2021/09/01 11:37:12;;;;;;;10.50;7.00;;;;;;;;;;5033891;28;20453;-57
2021/09/01 11:39:43;;;;;;;10.10;7.10;;;;;;;;;;5033104;28;20910;-56
2021/09/01 11:42:10;;;;;;;8.23;6.20;;;;;;;;;;5033632;28;20449;-56
2021/09/01 11:44:38;;;;;;;12.97;6.70;;;;;;;;;;5033025;28;20544;-56
2021/09/01 11:47:10;;;;;;;10.07;6.93;;;;;;;;;;5033267;28;20510;-56
2021/09/01 11:49:37;;;;;;;8.40;7.07;;;;;;;;;;5032731;28;20484;-56
2021/09/01 11:52:04;;;;;;;10.03;6.47;;;;;;;;;;5032780;28;20471;-56
2021/09/01 11:54:33;;;;;;;9.40;6.40;;;;;;;;;;5032766;28;20451;-56
2021/09/01 11:57:00;;;;;;;10.70;7.30;;;;;;;;;;5033159;28;20444;-56
2021/09/01 11:59:28;;;;;;;11.53;7.70;;;;;;;;;;5033120;28;20540;-56
2021/09/01 12:01:56;;;;;;;13.03;6.40;;;;;;;;;;5038509;28;20441;-59
2021/09/01 12:04:24;;;;;;;14.60;6.70;;;;;;;;;;5033301;28;20491;-56
2021/09/01 12:06:53;;;;;;;12.70;6.20;;;;;;;;;;5032819;28;20865;-56
2021/09/01 12:09:21;;;;;;;9.70;6.47;;;;;;;;;;5032564;28;20477;-55
2021/09/01 12:11:51;;;;;;;8.23;6.17;;;;;;;;;;5032754;28;20507;-55
2021/09/01 12:14:19;;;;;;;9.00;6.53;;;;;;;;;;5032440;28;20812;-55
2021/09/01 12:16:47;;;;;;;11.00;6.80;;;;;;;;;;5032531;28;20955;-55
2021/09/01 12:19:14;;;;;;;10.17;6.37;;;;;;;;;;5032582;28;20993;-56
2021/09/01 12:21:52;;;;;;;10.43;5.87;;;;;;;;;;5032392;28;21007;-57
2021/09/01 12:24:24;;;;;;;8.00;6.17;;;;;;;;;;5032817;28;20445;-56
2021/09/01 12:26:54;;;;;;;10.67;7.00;;;;;;;;;;5032448;28;20465;-55
2021/09/01 12:29:26;;;;;;;10.60;6.60;;;;;;;;;;5034474;28;20484;-57
2021/09/01 12:31:53;;;;;;;10.83;5.97;;;;;;;;;;5036720;28;20526;-56
2021/09/01 12:34:25;;;;;;;9.20;6.07;;;;;;;;;;5036406;28;20821;-55
2021/09/01 12:36:58;;;;;;;10.03;6.23;;;;;;;;;;5036637;28;20453;-56
2021/09/01 12:39:25;;;;;;;12.80;7.27;;;;;;;;;;5036428;28;20560;-55
2021/09/01 12:41:53;;;;;;;9.80;6.40;;;;;;;;;;5036457;28;20967;-55
2021/09/01 12:44:21;;;;;;;10.17;7.47;;;;;;;;;;5036316;28;20543;-56
2021/09/01 12:46:48;;;;;;;9.27;6.20;;;;;;;;;;5036153;28;20449;-56
2021/09/01 12:49:25;;;;;;;9.03;5.90;;;;;;;;;;5036004;28;20526;-56
2021/09/01 12:51:52;;;;;;;8.03;6.37;;;;;;;;;;5036106;28;20453;-55
2021/09/01 12:54:23;;;;;;;8.30;6.17;;;;;;;;;;5036336;28;20851;-54
2021/09/01 12:56:51;;;;;;;9.57;6.67;;;;;;;;;;5036526;28;20489;-55
2021/09/01 12:59:20;;;;;;;10.40;6.80;;;;;;;;;;5036188;28;20927;-55
2021/09/01 13:01:47;;;;;;;10.63;6.40;;;;;;;;;;5035774;28;21022;-54
2021/09/01 13:04:14;;;;;;;9.10;5.80;;;;;;;;;;5036142;28;20456;-54
2021/09/01 13:06:42;;;;;;;7.47;5.70;;;;;;;;;;5035906;28;20449;-56
2021/09/01 13:09:09;;;;;;;10.80;5.60;;;;;;;;;;5036081;28;20895;-56
2021/09/01 13:11:37;;;;;;;9.50;6.30;;;;;;;;;;5036132;28;20449;-57
2021/09/01 13:14:04;;;;;;;9.53;6.80;;;;;;;;;;5035889;28;20444;-55
2021/09/01 13:16:32;;;;;;;13.30;6.23;;;;;;;;;;5036212;28;20440;-55
2021/09/01 13:19:00;;;;;;;9.57;6.17;;;;;;;;;;5036147;28;20469;-54
2021/09/01 13:21:27;;;;;;;7.50;6.23;;;;;;;;;;5035724;28;20449;-56
2021/09/01 13:23:54;;;;;;;11.47;6.37;;;;;;;;;;5035840;28;20461;-56
2021/09/01 13:26:21;;;;;;;9.70;5.53;;;;;;;;;;5035989;28;20448;-56
2021/09/01 13:28:49;;;;;;;9.40;6.83;;;;;;;;;;5035623;28;20981;-56
2021/09/01 13:31:16;;;;;;;9.23;6.63;;;;;;;;;;5035429;28;20478;-55
2021/09/01 13:33:45;;;;;;;11.50;6.80;;;;;;;;;;5035512;28;20507;-57
2021/09/01 13:36:12;;;;;;;11.43;6.30;;;;;;;;;;5035258;28;20872;-56
2021/09/01 13:38:39;;;;;;;9.77;7.07;;;;;;;;;;5058871;22;20537;-60
2021/09/01 13:41:07;;;;;;;12.20;6.90;;;;;;;;;;5035181;28;20914;-62
2021/09/01 13:43:34;;;;;;;10.00;6.33;;;;;;;;;;5035341;28;20505;-62
2021/09/01 13:46:01;;;;;;;11.20;6.50;;;;;;;;;;5035401;28;20501;-61
2021/09/01 13:48:28;;;;;;;11.03;7.67;;;;;;;;;;5035675;28;20891;-62
2021/09/01 13:50:57;;;;;;;9.80;7.10;;;;;;;;;;5035022;28;20481;-62
2021/09/01 13:53:25;;;;;;;10.77;6.27;;;;;;;;;;5035183;28;20947;-61
2021/09/01 13:55:52;;;;;;;10.90;6.97;;;;;;;;;;5035502;28;20501;-61
2021/09/01 13:58:19;;;;;;;8.77;6.70;;;;;;;;;;5035334;28;20464;-61
2021/09/01 14:00:50;;;;;;;10.67;7.20;;;;;;;;;;5035411;28;20506;-61
2021/09/01 14:03:17;;;;;;;9.30;7.20;;;;;;;;;;5035325;28;20432;-61
2021/09/01 14:05:44;;;;;;;10.60;6.90;;;;;;;;;;5035560;28;20451;-62
2021/09/01 14:08:13;;;;;;;9.10;6.80;;;;;;;;;;5035222;28;20450;-60
2021/09/01 14:10:40;;;;;;;10.83;8.20;;;;;;;;;;5035321;28;20478;-61
2021/09/01 14:13:07;;;;;;;9.97;6.80;;;;;;;;;;5034780;28;20934;-62
2021/09/01 14:15:35;;;;;;;7.00;6.27;;;;;;;;;;5035048;28;20442;-63
2021/09/01 14:18:03;;;;;;;11.03;7.10;;;;;;;;;;5034756;28;20496;-62
2021/09/01 14:20:31;;;;;;;7.30;6.00;;;;;;;;;;5034418;28;20446;-64
2021/09/01 14:22:58;;;;;;;8.50;6.83;;;;;;;;;;5034828;28;20555;-62
2021/09/01 14:25:27;;;;;;;6.60;5.83;;;;;;;;;;5035168;28;20545;-62
2021/09/01 14:27:55;;;;;;;9.60;6.70;;;;;;;;;;5035486;28;20454;-61
2021/09/01 14:30:22;;;;;;;8.63;5.87;;;;;;;;;;5034740;28;20487;-62
2021/09/01 14:32:49;;;;;;;7.57;6.10;;;;;;;;;;5034986;28;20466;-61
2021/09/01 14:35:16;;;;;;;9.23;5.77;;;;;;;;;;5034460;28;20453;-61
2021/09/01 14:37:44;;;;;;;11.27;5.90;;;;;;;;;;5034643;28;20456;-60
2021/09/01 14:40:12;;;;;;;8.70;6.20;;;;;;;;;;5033945;28;20563;-62